sensor_id;sensor_type;location;lat;lon;timestamp;pressure;altitude;pressure_sealevel;temperature;humidity
30819;BME280;17546;42.674;23.284;2022-12-18T00:00:46;95472.78;;;11.73;55.70
30819;BME280;17546;42.674;23.284;2022-12-18T00:03:13;95473.94;;;12.08;54.12
30819;BME280;17546;42.674;23.284;2022-12-18T00:05:49;95480.47;;;11.64;54.85
30819;BME280;17546;42.674;23.284;2022-12-18T00:08:16;95480.63;;;11.34;55.82
30819;BME280;17546;42.674;23.284;2022-12-18T00:10:41;95481.38;;;11.34;55.58
30819;BME280;17546;42.674;23.284;2022-12-18T00:13:07;95483.44;;;11.40;55.84
30819;BME280;17546;42.674;23.284;2022-12-18T00:15:36;95495.81;;;11.59;55.13
30819;BME280;17546;42.674;23.284;2022-12-18T00:18:02;95490.50;;;11.96;54.70
30819;BME280;17546;42.674;23.284;2022-12-18T00:20:27;95491.78;;;12.01;54.29
30819;BME280;17546;42.674;23.284;2022-12-18T00:22:53;95502.34;;;11.97;53.91
30819;BME280;17546;42.674;23.284;2022-12-18T00:25:19;95494.25;;;11.73;54.51
30819;BME280;17546;42.674;23.284;2022-12-18T00:27:45;95498.41;;;11.07;56.14
30819;BME280;17546;42.674;23.284;2022-12-18T00:30:11;95503.09;;;11.36;55.24
30819;BME280;17546;42.674;23.284;2022-12-18T00:32:36;95514.91;;;11.72;54.49
30819;BME280;17546;42.674;23.284;2022-12-18T00:35:03;95515.38;;;11.70;54.52
30819;BME280;17546;42.674;23.284;2022-12-18T00:37:28;95515.59;;;11.87;54.27
30819;BME280;17546;42.674;23.284;2022-12-18T00:39:54;95512.53;;;11.85;54.00
30819;BME280;17546;42.674;23.284;2022-12-18T00:42:19;95516.03;;;11.80;54.25
30819;BME280;17546;42.674;23.284;2022-12-18T00:45:11;95520.44;;;12.33;53.10
30819;BME280;17546;42.674;23.284;2022-12-18T00:47:36;95523.66;;;12.26;53.23
30819;BME280;17546;42.674;23.284;2022-12-18T00:50:02;95513.72;;;12.19;52.84
30819;BME280;17546;42.674;23.284;2022-12-18T00:52:27;95525.75;;;12.11;53.23
30819;BME280;17546;42.674;23.284;2022-12-18T00:54:53;95515.47;;;11.96;53.17
30819;BME280;17546;42.674;23.284;2022-12-18T00:57:18;95534.94;;;11.61;54.02
30819;BME280;17546;42.674;23.284;2022-12-18T00:59:44;95523.97;;;11.52;54.31
30819;BME280;17546;42.674;23.284;2022-12-18T01:02:10;95533.59;;;11.92;53.57
30819;BME280;17546;42.674;23.284;2022-12-18T01:04:35;95535.13;;;12.13;53.02
30819;BME280;17546;42.674;23.284;2022-12-18T01:07:00;95540.59;;;12.28;52.60
30819;BME280;17546;42.674;23.284;2022-12-18T01:09:26;95544.69;;;12.12;52.78
30819;BME280;17546;42.674;23.284;2022-12-18T01:11:51;95549.16;;;12.04;52.53
30819;BME280;17546;42.674;23.284;2022-12-18T01:14:17;95545.75;;;12.41;51.80
30819;BME280;17546;42.674;23.284;2022-12-18T01:16:42;95548.91;;;12.54;51.43
30819;BME280;17546;42.674;23.284;2022-12-18T01:19:08;95543.13;;;12.32;51.66
30819;BME280;17546;42.674;23.284;2022-12-18T01:21:33;95549.91;;;12.51;51.03
30819;BME280;17546;42.674;23.284;2022-12-18T01:23:59;95549.34;;;12.47;50.78
30819;BME280;17546;42.674;23.284;2022-12-18T01:26:26;95552.88;;;12.01;51.55
30819;BME280;17546;42.674;23.284;2022-12-18T01:28:55;95558.81;;;12.09;51.23
30819;BME280;17546;42.674;23.284;2022-12-18T01:31:26;95548.94;;;12.28;50.79
30819;BME280;17546;42.674;23.284;2022-12-18T01:33:53;95556.66;;;12.45;50.41
30819;BME280;17546;42.674;23.284;2022-12-18T01:36:32;95556.53;;;12.33;50.71
30819;BME280;17546;42.674;23.284;2022-12-18T01:39:04;95562.97;;;11.63;51.77
30819;BME280;17546;42.674;23.284;2022-12-18T01:41:32;95559.84;;;11.91;51.42
30819;BME280;17546;42.674;23.284;2022-12-18T01:50:03;95574.03;;;11.78;52.01
30819;BME280;17546;42.674;23.284;2022-12-18T01:52:31;95567.28;;;11.99;51.30
30819;BME280;17546;42.674;23.284;2022-12-18T01:54:59;95569.63;;;12.07;51.29
30819;BME280;17546;42.674;23.284;2022-12-18T01:57:26;95567.59;;;12.28;50.84
30819;BME280;17546;42.674;23.284;2022-12-18T01:59:53;95577.41;;;11.32;51.80
30819;BME280;17546;42.674;23.284;2022-12-18T02:02:22;95561.97;;;10.95;52.92
30819;BME280;17546;42.674;23.284;2022-12-18T02:04:47;95561.59;;;11.03;52.91
30819;BME280;17546;42.674;23.284;2022-12-18T02:18:07;95583.69;;;11.83;51.55
30819;BME280;17546;42.674;23.284;2022-12-18T02:20:54;95588.19;;;11.95;51.30
30819;BME280;17546;42.674;23.284;2022-12-18T02:28:45;95591.25;;;11.82;51.34
30819;BME280;17546;42.674;23.284;2022-12-18T02:31:16;95596.63;;;12.27;50.43
30819;BME280;17546;42.674;23.284;2022-12-18T02:33:44;95594.25;;;12.40;50.17
30819;BME280;17546;42.674;23.284;2022-12-18T02:36:12;95601.06;;;11.98;50.82
30819;BME280;17546;42.674;23.284;2022-12-18T02:38:41;95596.75;;;11.97;50.88
30819;BME280;17546;42.674;23.284;2022-12-18T02:41:07;95601.06;;;12.39;49.99
30819;BME280;17546;42.674;23.284;2022-12-18T02:43:33;95602.16;;;12.47;49.52
30819;BME280;17546;42.674;23.284;2022-12-18T02:46:00;95601.81;;;12.19;49.56
30819;BME280;17546;42.674;23.284;2022-12-18T02:48:29;95607.53;;;11.74;50.59
30819;BME280;17546;42.674;23.284;2022-12-18T02:51:08;95602.00;;;11.74;50.80
30819;BME280;17546;42.674;23.284;2022-12-18T02:53:43;95596.69;;;11.56;51.35
30819;BME280;17546;42.674;23.284;2022-12-18T02:56:18;95606.03;;;11.73;50.74
30819;BME280;17546;42.674;23.284;2022-12-18T02:59:02;95596.66;;;11.35;51.66
30819;BME280;17546;42.674;23.284;2022-12-18T03:04:23;95611.88;;;11.25;51.94
30819;BME280;17546;42.674;23.284;2022-12-18T03:06:54;95616.25;;;11.17;51.97
30819;BME280;17546;42.674;23.284;2022-12-18T03:09:34;95612.47;;;10.85;52.57
30819;BME280;17546;42.674;23.284;2022-12-18T03:12:10;95620.00;;;10.84;52.86
30819;BME280;17546;42.674;23.284;2022-12-18T03:15:25;95620.66;;;10.49;52.96
30819;BME280;17546;42.674;23.284;2022-12-18T03:18:22;95621.47;;;9.68;55.47
30819;BME280;17546;42.674;23.284;2022-12-18T03:20:49;95624.34;;;9.98;54.90
30819;BME280;17546;42.674;23.284;2022-12-18T03:23:20;95631.09;;;10.06;54.91
30819;BME280;17546;42.674;23.284;2022-12-18T03:25:47;95626.19;;;10.49;53.89
30819;BME280;17546;42.674;23.284;2022-12-18T03:28:19;95632.91;;;10.87;53.09
30819;BME280;17546;42.674;23.284;2022-12-18T03:30:47;95626.72;;;10.39;53.60
30819;BME280;17546;42.674;23.284;2022-12-18T03:35:50;95640.94;;;9.83;55.46
30819;BME280;17546;42.674;23.284;2022-12-18T03:38:15;95637.66;;;9.85;55.39
30819;BME280;17546;42.674;23.284;2022-12-18T03:43:42;95648.06;;;10.47;53.31
30819;BME280;17546;42.674;23.284;2022-12-18T03:46:30;95653.34;;;10.12;54.60
30819;BME280;17546;42.674;23.284;2022-12-18T03:49:02;95666.78;;;10.28;53.80
30819;BME280;17546;42.674;23.284;2022-12-18T03:52:04;95671.56;;;10.28;53.47
30819;BME280;17546;42.674;23.284;2022-12-18T03:54:32;95667.31;;;10.81;52.43
30819;BME280;17546;42.674;23.284;2022-12-18T03:57:09;95663.50;;;10.78;52.30
30819;BME280;17546;42.674;23.284;2022-12-18T03:59:37;95671.38;;;10.55;53.11
30819;BME280;17546;42.674;23.284;2022-12-18T04:02:05;95671.06;;;10.53;52.58
30819;BME280;17546;42.674;23.284;2022-12-18T04:04:32;95679.50;;;10.59;52.81
30819;BME280;17546;42.674;23.284;2022-12-18T04:06:59;95685.25;;;10.70;52.08
30819;BME280;17546;42.674;23.284;2022-12-18T04:09:25;95688.78;;;10.32;52.96
30819;BME280;17546;42.674;23.284;2022-12-18T04:11:51;95687.94;;;10.17;52.87
30819;BME280;17546;42.674;23.284;2022-12-18T04:14:17;95694.50;;;10.91;51.02
30819;BME280;17546;42.674;23.284;2022-12-18T04:16:42;95701.38;;;10.33;51.90
30819;BME280;17546;42.674;23.284;2022-12-18T04:19:08;95701.41;;;10.72;51.39
30819;BME280;17546;42.674;23.284;2022-12-18T04:21:33;95706.97;;;10.72;51.10
30819;BME280;17546;42.674;23.284;2022-12-18T04:23:58;95723.88;;;10.74;50.91
30819;BME280;17546;42.674;23.284;2022-12-18T04:26:24;95712.28;;;10.61;51.02
30819;BME280;17546;42.674;23.284;2022-12-18T04:28:49;95710.81;;;10.50;51.03
30819;BME280;17546;42.674;23.284;2022-12-18T04:31:15;95706.88;;;10.09;51.26
30819;BME280;17546;42.674;23.284;2022-12-18T04:33:40;95720.38;;;10.49;51.06
30819;BME280;17546;42.674;23.284;2022-12-18T04:36:06;95726.31;;;10.33;50.56
30819;BME280;17546;42.674;23.284;2022-12-18T04:38:32;95732.03;;;10.29;51.06
30819;BME280;17546;42.674;23.284;2022-12-18T04:40:57;95736.34;;;10.30;50.57
30819;BME280;17546;42.674;23.284;2022-12-18T04:43:23;95744.88;;;10.66;50.03
30819;BME280;17546;42.674;23.284;2022-12-18T04:45:48;95741.41;;;10.32;50.30
30819;BME280;17546;42.674;23.284;2022-12-18T04:48:14;95748.88;;;10.65;49.79
30819;BME280;17546;42.674;23.284;2022-12-18T04:50:39;95746.03;;;10.26;49.94
30819;BME280;17546;42.674;23.284;2022-12-18T04:53:05;95739.41;;;10.32;49.60
30819;BME280;17546;42.674;23.284;2022-12-18T04:55:30;95751.41;;;10.29;50.26
30819;BME280;17546;42.674;23.284;2022-12-18T04:57:55;95752.00;;;10.00;50.48
30819;BME280;17546;42.674;23.284;2022-12-18T05:00:21;95753.44;;;10.20;50.09
30819;BME280;17546;42.674;23.284;2022-12-18T05:02:47;95754.16;;;10.05;50.42
30819;BME280;17546;42.674;23.284;2022-12-18T05:05:13;95778.44;;;9.49;51.63
30819;BME280;17546;42.674;23.284;2022-12-18T05:07:38;95774.97;;;9.30;52.01
30819;BME280;17546;42.674;23.284;2022-12-18T05:10:04;95783.84;;;9.53;51.47
30819;BME280;17546;42.674;23.284;2022-12-18T05:12:32;95777.56;;;9.25;52.29
30819;BME280;17546;42.674;23.284;2022-12-18T05:14:57;95781.44;;;9.09;52.29
30819;BME280;17546;42.674;23.284;2022-12-18T05:17:22;95781.59;;;8.96;52.69
30819;BME280;17546;42.674;23.284;2022-12-18T05:19:48;95774.38;;;8.99;52.71
30819;BME280;17546;42.674;23.284;2022-12-18T05:22:13;95782.50;;;9.21;52.18
30819;BME280;17546;42.674;23.284;2022-12-18T05:24:39;95786.50;;;8.83;53.21
30819;BME280;17546;42.674;23.284;2022-12-18T05:27:04;95786.16;;;9.36;52.27
30819;BME280;17546;42.674;23.284;2022-12-18T05:29:29;95789.41;;;9.25;52.25
30819;BME280;17546;42.674;23.284;2022-12-18T05:31:55;95784.22;;;9.00;53.17
30819;BME280;17546;42.674;23.284;2022-12-18T05:34:20;95804.78;;;8.80;53.55
30819;BME280;17546;42.674;23.284;2022-12-18T05:36:46;95799.97;;;9.55;51.54
30819;BME280;17546;42.674;23.284;2022-12-18T05:39:11;95811.81;;;9.55;51.77
30819;BME280;17546;42.674;23.284;2022-12-18T05:41:37;95814.34;;;9.86;51.02
30819;BME280;17546;42.674;23.284;2022-12-18T05:44:02;95817.63;;;9.48;51.82
30819;BME280;17546;42.674;23.284;2022-12-18T05:46:28;95822.91;;;9.18;51.53
30819;BME280;17546;42.674;23.284;2022-12-18T05:49:01;95828.06;;;9.62;50.71
30819;BME280;17546;42.674;23.284;2022-12-18T05:51:27;95822.44;;;9.99;49.75
30819;BME280;17546;42.674;23.284;2022-12-18T05:53:52;95816.09;;;9.56;49.98
30819;BME280;17546;42.674;23.284;2022-12-18T05:56:20;95828.09;;;9.53;50.40
30819;BME280;17546;42.674;23.284;2022-12-18T05:58:46;95821.97;;;9.12;51.18
30819;BME280;17546;42.674;23.284;2022-12-18T06:01:15;95832.56;;;9.50;50.79
30819;BME280;17546;42.674;23.284;2022-12-18T06:03:41;95840.69;;;10.15;49.87
30819;BME280;17546;42.674;23.284;2022-12-18T06:06:20;95838.31;;;9.89;49.95
30819;BME280;17546;42.674;23.284;2022-12-18T06:08:46;95841.34;;;10.01;49.80
30819;BME280;17546;42.674;23.284;2022-12-18T06:11:11;95843.75;;;10.17;48.89
30819;BME280;17546;42.674;23.284;2022-12-18T06:13:38;95841.81;;;9.99;49.50
30819;BME280;17546;42.674;23.284;2022-12-18T06:16:05;95843.72;;;9.84;50.14
30819;BME280;17546;42.674;23.284;2022-12-18T06:18:31;95847.25;;;9.84;50.06
30819;BME280;17546;42.674;23.284;2022-12-18T06:20:58;95842.34;;;9.70;50.00
30819;BME280;17546;42.674;23.284;2022-12-18T06:23:24;95843.63;;;9.50;50.68
30819;BME280;17546;42.674;23.284;2022-12-18T06:25:49;95856.69;;;9.13;51.67
30819;BME280;17546;42.674;23.284;2022-12-18T06:28:15;95855.75;;;9.07;51.41
30819;BME280;17546;42.674;23.284;2022-12-18T06:30:45;95848.38;;;9.50;50.79
30819;BME280;17546;42.674;23.284;2022-12-18T06:33:11;95852.38;;;8.94;51.98
30819;BME280;17546;42.674;23.284;2022-12-18T06:35:36;95883.72;;;9.37;51.08
30819;BME280;17546;42.674;23.284;2022-12-18T06:38:02;95872.69;;;9.46;50.76
30819;BME280;17546;42.674;23.284;2022-12-18T06:40:28;95869.72;;;9.59;50.42
30819;BME280;17546;42.674;23.284;2022-12-18T06:42:53;95874.88;;;10.12;49.48
30819;BME280;17546;42.674;23.284;2022-12-18T06:45:19;95878.44;;;10.03;49.28
30819;BME280;17546;42.674;23.284;2022-12-18T06:47:44;95890.06;;;10.07;49.48
30819;BME280;17546;42.674;23.284;2022-12-18T06:50:10;95888.16;;;9.80;49.80
30819;BME280;17546;42.674;23.284;2022-12-18T06:52:36;95894.47;;;9.25;50.47
30819;BME280;17546;42.674;23.284;2022-12-18T06:55:02;95898.78;;;9.36;50.73
30819;BME280;17546;42.674;23.284;2022-12-18T06:57:28;95893.06;;;9.76;49.71
30819;BME280;17546;42.674;23.284;2022-12-18T06:59:53;95898.78;;;9.54;49.38
30819;BME280;17546;42.674;23.284;2022-12-18T07:02:18;95900.78;;;9.81;49.00
30819;BME280;17546;42.674;23.284;2022-12-18T07:04:44;95899.97;;;9.90;48.80
30819;BME280;17546;42.674;23.284;2022-12-18T07:07:09;95904.16;;;9.58;49.01
30819;BME280;17546;42.674;23.284;2022-12-18T07:09:35;95904.16;;;9.58;49.48
30819;BME280;17546;42.674;23.284;2022-12-18T07:12:00;95910.38;;;10.13;48.55
30819;BME280;17546;42.674;23.284;2022-12-18T07:14:26;95903.78;;;10.02;48.50
30819;BME280;17546;42.674;23.284;2022-12-18T07:16:51;95914.94;;;10.44;47.83
30819;BME280;17546;42.674;23.284;2022-12-18T07:19:17;95918.16;;;9.72;48.68
30819;BME280;17546;42.674;23.284;2022-12-18T07:21:42;95906.75;;;9.89;48.36
30819;BME280;17546;42.674;23.284;2022-12-18T07:24:07;95908.81;;;10.22;47.97
30819;BME280;17546;42.674;23.284;2022-12-18T07:26:33;95909.41;;;9.46;49.11
30819;BME280;17546;42.674;23.284;2022-12-18T07:28:58;95917.22;;;9.29;49.63
30819;BME280;17546;42.674;23.284;2022-12-18T07:31:25;95925.81;;;9.78;48.78
30819;BME280;17546;42.674;23.284;2022-12-18T07:33:51;95922.41;;;9.92;48.17
30819;BME280;17546;42.674;23.284;2022-12-18T07:36:16;95934.41;;;9.89;48.07
30819;BME280;17546;42.674;23.284;2022-12-18T07:38:42;95932.22;;;8.92;49.88
30819;BME280;17546;42.674;23.284;2022-12-18T07:41:10;95934.59;;;9.39;49.49
30819;BME280;17546;42.674;23.284;2022-12-18T07:43:37;95935.34;;;9.67;48.51
30819;BME280;17546;42.674;23.284;2022-12-18T07:46:03;95935.66;;;9.97;48.35
30819;BME280;17546;42.674;23.284;2022-12-18T07:48:29;95935.19;;;9.89;48.27
30819;BME280;17546;42.674;23.284;2022-12-18T07:51:05;95938.41;;;9.79;48.01
30819;BME280;17546;42.674;23.284;2022-12-18T07:53:32;95940.53;;;10.02;47.47
30819;BME280;17546;42.674;23.284;2022-12-18T07:55:59;95947.63;;;9.85;48.37
30819;BME280;17546;42.674;23.284;2022-12-18T07:58:30;95955.00;;;9.79;48.25
30819;BME280;17546;42.674;23.284;2022-12-18T08:01:06;95953.97;;;9.58;49.14
30819;BME280;17546;42.674;23.284;2022-12-18T08:03:32;95957.19;;;9.75;48.91
30819;BME280;17546;42.674;23.284;2022-12-18T08:06:02;95956.09;;;9.44;49.05
30819;BME280;17546;42.674;23.284;2022-12-18T08:08:29;95959.75;;;9.32;49.16
30819;BME280;17546;42.674;23.284;2022-12-18T08:10:55;95957.16;;;9.28;49.20
30819;BME280;17546;42.674;23.284;2022-12-18T08:13:21;95961.75;;;9.13;49.48
30819;BME280;17546;42.674;23.284;2022-12-18T08:15:57;95970.56;;;9.48;49.21
30819;BME280;17546;42.674;23.284;2022-12-18T08:18:23;95969.59;;;8.74;50.44
30819;BME280;17546;42.674;23.284;2022-12-18T08:20:49;95981.09;;;8.73;50.61
30819;BME280;17546;42.674;23.284;2022-12-18T08:23:14;95978.91;;;9.08;50.04
30819;BME280;17546;42.674;23.284;2022-12-18T08:25:40;95986.53;;;9.35;49.61
30819;BME280;17546;42.674;23.284;2022-12-18T08:28:05;95993.16;;;9.93;48.21
30819;BME280;17546;42.674;23.284;2022-12-18T08:30:31;95987.81;;;9.03;49.97
30819;BME280;17546;42.674;23.284;2022-12-18T08:32:56;95984.75;;;9.10;50.15
30819;BME280;17546;42.674;23.284;2022-12-18T08:35:21;95999.06;;;9.18;49.76
30819;BME280;17546;42.674;23.284;2022-12-18T08:37:47;95985.16;;;9.40;49.00
30819;BME280;17546;42.674;23.284;2022-12-18T08:40:12;96000.56;;;9.00;49.61
30819;BME280;17546;42.674;23.284;2022-12-18T08:42:38;96000.81;;;10.07;48.39
30819;BME280;17546;42.674;23.284;2022-12-18T08:45:22;96001.44;;;9.56;48.79
30819;BME280;17546;42.674;23.284;2022-12-18T08:47:47;96010.38;;;9.97;47.70
30819;BME280;17546;42.674;23.284;2022-12-18T08:50:13;96004.84;;;9.97;47.39
30819;BME280;17546;42.674;23.284;2022-12-18T08:52:38;96012.84;;;9.86;48.10
30819;BME280;17546;42.674;23.284;2022-12-18T08:55:04;96005.91;;;9.63;47.95
30819;BME280;17546;42.674;23.284;2022-12-18T08:57:29;96010.69;;;9.99;47.52
30819;BME280;17546;42.674;23.284;2022-12-18T08:59:55;96004.50;;;9.49;48.18
30819;BME280;17546;42.674;23.284;2022-12-18T09:02:20;96003.63;;;9.61;47.85
30819;BME280;17546;42.674;23.284;2022-12-18T09:04:49;96001.00;;;9.85;47.43
30819;BME280;17546;42.674;23.284;2022-12-18T09:07:14;96005.28;;;10.05;46.96
30819;BME280;17546;42.674;23.284;2022-12-18T09:09:39;95999.59;;;9.62;47.74
30819;BME280;17546;42.674;23.284;2022-12-18T09:12:05;95997.72;;;9.31;48.42
30819;BME280;17546;42.674;23.284;2022-12-18T09:14:31;95991.63;;;9.46;48.87
30819;BME280;17546;42.674;23.284;2022-12-18T09:16:57;96002.69;;;10.29;47.38
30819;BME280;17546;42.674;23.284;2022-12-18T09:19:22;96001.75;;;10.41;47.18
30819;BME280;17546;42.674;23.284;2022-12-18T09:21:48;96001.13;;;10.28;47.15
30819;BME280;17546;42.674;23.284;2022-12-18T09:24:13;95994.66;;;10.40;46.97
30819;BME280;17546;42.674;23.284;2022-12-18T09:26:39;95998.19;;;10.50;46.77
30819;BME280;17546;42.674;23.284;2022-12-18T09:29:04;95996.78;;;10.54;45.83
30819;BME280;17546;42.674;23.284;2022-12-18T09:31:32;95994.16;;;10.51;45.89
30819;BME280;17546;42.674;23.284;2022-12-18T09:33:58;95999.19;;;10.71;44.64
30819;BME280;17546;42.674;23.284;2022-12-18T09:36:24;96009.72;;;10.21;45.92
30819;BME280;17546;42.674;23.284;2022-12-18T09:38:49;96002.50;;;10.14;45.89
30819;BME280;17546;42.674;23.284;2022-12-18T09:44:00;96006.31;;;10.53;45.44
30819;BME280;17546;42.674;23.284;2022-12-18T09:46:29;96008.84;;;10.05;46.09
30819;BME280;17546;42.674;23.284;2022-12-18T09:48:59;95994.38;;;10.10;46.25
30819;BME280;17546;42.674;23.284;2022-12-18T09:51:27;96003.63;;;10.78;58.35
30819;BME280;17546;42.674;23.284;2022-12-18T09:54:02;96003.09;;;12.18;56.09
30819;BME280;17546;42.674;23.284;2022-12-18T09:56:31;95995.56;;;12.48;45.70
30819;BME280;17546;42.674;23.284;2022-12-18T09:59:01;95988.66;;;12.29;41.71
30819;BME280;17546;42.674;23.284;2022-12-18T10:01:28;95999.94;;;12.25;42.15
30819;BME280;17546;42.674;23.284;2022-12-18T10:03:55;95995.41;;;11.26;42.69
30819;BME280;17546;42.674;23.284;2022-12-18T10:06:29;95994.59;;;11.34;43.33
30819;BME280;17546;42.674;23.284;2022-12-18T10:17:50;95992.13;;;10.70;44.22
30819;BME280;17546;42.674;23.284;2022-12-18T10:23:33;96008.22;;;10.29;44.12
30819;BME280;17546;42.674;23.284;2022-12-18T10:26:05;96005.13;;;10.36;44.03
30819;BME280;17546;42.674;23.284;2022-12-18T10:28:32;96004.38;;;10.36;44.17
30819;BME280;17546;42.674;23.284;2022-12-18T10:30:58;96010.66;;;9.53;45.22
30819;BME280;17546;42.674;23.284;2022-12-18T10:33:28;95998.03;;;8.84;47.33
30819;BME280;17546;42.674;23.284;2022-12-18T10:35:54;96011.66;;;9.19;46.71
30819;BME280;17546;42.674;23.284;2022-12-18T10:38:27;95998.28;;;8.67;47.17
30819;BME280;17546;42.674;23.284;2022-12-18T10:40:59;96004.50;;;9.40;46.47
30819;BME280;17546;42.674;23.284;2022-12-18T10:43:36;96004.22;;;9.65;45.74
30819;BME280;17546;42.674;23.284;2022-12-18T10:48:31;95991.00;;;9.60;45.26
30819;BME280;17546;42.674;23.284;2022-12-18T10:50:59;95996.84;;;9.53;45.91
30819;BME280;17546;42.674;23.284;2022-12-18T10:53:29;96000.69;;;9.74;45.18
30819;BME280;17546;42.674;23.284;2022-12-18T10:56:01;95996.53;;;9.42;45.46
30819;BME280;17546;42.674;23.284;2022-12-18T10:58:33;95996.84;;;9.81;44.93
30819;BME280;17546;42.674;23.284;2022-12-18T11:03:32;95991.91;;;9.94;44.16
30819;BME280;17546;42.674;23.284;2022-12-18T11:06:07;95992.38;;;9.46;43.91
30819;BME280;17546;42.674;23.284;2022-12-18T11:08:34;96000.16;;;9.29;44.76
30819;BME280;17546;42.674;23.284;2022-12-18T11:11:00;96001.13;;;9.45;44.17
30819;BME280;17546;42.674;23.284;2022-12-18T11:13:27;96000.69;;;9.56;44.04
30819;BME280;17546;42.674;23.284;2022-12-18T11:15:54;95999.31;;;9.88;43.56
30819;BME280;17546;42.674;23.284;2022-12-18T11:18:29;96000.22;;;9.94;43.03
30819;BME280;17546;42.674;23.284;2022-12-18T11:21:06;96013.91;;;9.88;43.17
30819;BME280;17546;42.674;23.284;2022-12-18T11:23:33;96012.22;;;10.00;42.79
30819;BME280;17546;42.674;23.284;2022-12-18T11:26:01;96007.31;;;9.86;43.58
30819;BME280;17546;42.674;23.284;2022-12-18T11:31:22;96008.53;;;9.76;43.17
30819;BME280;17546;42.674;23.284;2022-12-18T11:34:11;96003.31;;;9.96;43.17
30819;BME280;17546;42.674;23.284;2022-12-18T11:36:45;96004.06;;;10.06;42.81
30819;BME280;17546;42.674;23.284;2022-12-18T11:39:35;96004.66;;;10.28;42.37
30819;BME280;17546;42.674;23.284;2022-12-18T11:42:09;96007.16;;;10.08;42.35
30819;BME280;17546;42.674;23.284;2022-12-18T11:44:45;96008.84;;;10.05;41.76
30819;BME280;17546;42.674;23.284;2022-12-18T11:50:00;96015.75;;;9.91;41.53
30819;BME280;17546;42.674;23.284;2022-12-18T11:52:31;96016.66;;;9.61;42.50
30819;BME280;17546;42.674;23.284;2022-12-18T11:55:00;96012.38;;;10.06;42.47
30819;BME280;17546;42.674;23.284;2022-12-18T12:00:19;96004.19;;;10.21;41.92
30819;BME280;17546;42.674;23.284;2022-12-18T12:25:02;95993.66;;;11.04;41.79
30819;BME280;17546;42.674;23.284;2022-12-18T12:36:15;96012.75;;;10.69;42.34
30819;BME280;17546;42.674;23.284;2022-12-18T12:38:52;96020.22;;;10.35;42.97
30819;BME280;17546;42.674;23.284;2022-12-18T12:41:23;96011.28;;;10.40;43.49
30819;BME280;17546;42.674;23.284;2022-12-18T12:44:14;96009.94;;;10.87;42.58
30819;BME280;17546;42.674;23.284;2022-12-18T12:46:42;96005.03;;;10.73;42.53
30819;BME280;17546;42.674;23.284;2022-12-18T12:49:15;96015.13;;;11.28;41.97
30819;BME280;17546;42.674;23.284;2022-12-18T12:52:03;96013.50;;;11.45;41.62
30819;BME280;17546;42.674;23.284;2022-12-18T12:54:31;96018.94;;;10.64;42.88
30819;BME280;17546;42.674;23.284;2022-12-18T12:57:04;96017.00;;;10.88;42.61
30819;BME280;17546;42.674;23.284;2022-12-18T13:02:17;96030.28;;;10.75;42.93
30819;BME280;17546;42.674;23.284;2022-12-18T13:07:59;96016.38;;;9.68;44.50
30819;BME280;17546;42.674;23.284;2022-12-18T13:10:34;96020.06;;;9.92;44.11
30819;BME280;17546;42.674;23.284;2022-12-18T13:13:11;96032.19;;;9.67;44.21
30819;BME280;17546;42.674;23.284;2022-12-18T13:15:46;96035.91;;;9.92;44.33
30819;BME280;17546;42.674;23.284;2022-12-18T13:20:44;96043.06;;;10.72;42.21
30819;BME280;17546;42.674;23.284;2022-12-18T13:25:48;96040.53;;;9.95;43.62
30819;BME280;17546;42.674;23.284;2022-12-18T13:28:24;96046.97;;;10.20;43.69
30819;BME280;17546;42.674;23.284;2022-12-18T13:31:05;96048.97;;;10.47;43.25
30819;BME280;17546;42.674;23.284;2022-12-18T13:33:45;96053.09;;;10.70;42.95
30819;BME280;17546;42.674;23.284;2022-12-18T13:41:40;96047.78;;;10.39;43.54
30819;BME280;17546;42.674;23.284;2022-12-18T13:44:31;96055.22;;;10.75;42.72
30819;BME280;17546;42.674;23.284;2022-12-18T13:46:59;96059.59;;;10.48;43.05
30819;BME280;17546;42.674;23.284;2022-12-18T13:52:03;96072.81;;;10.53;43.32
30819;BME280;17546;42.674;23.284;2022-12-18T13:54:41;96062.81;;;10.65;42.91
30819;BME280;17546;42.674;23.284;2022-12-18T13:57:27;96076.94;;;10.77;42.86
30819;BME280;17546;42.674;23.284;2022-12-18T13:59:54;96069.47;;;10.49;42.89
30819;BME280;17546;42.674;23.284;2022-12-18T14:02:24;96072.06;;;9.88;44.16
30819;BME280;17546;42.674;23.284;2022-12-18T14:04:51;96073.13;;;9.91;43.68
30819;BME280;17546;42.674;23.284;2022-12-18T14:07:20;96072.78;;;9.61;43.86
30819;BME280;17546;42.674;23.284;2022-12-18T14:09:52;96062.94;;;9.69;43.65
30819;BME280;17546;42.674;23.284;2022-12-18T14:12:29;96069.72;;;9.96;43.01
30819;BME280;17546;42.674;23.284;2022-12-18T14:15:23;96070.06;;;10.17;42.38
30819;BME280;17546;42.674;23.284;2022-12-18T14:17:52;96075.28;;;9.87;42.28
30819;BME280;17546;42.674;23.284;2022-12-18T14:20:19;96086.22;;;10.46;41.44
30819;BME280;17546;42.674;23.284;2022-12-18T14:22:47;96086.66;;;10.07;41.90
30819;BME280;17546;42.674;23.284;2022-12-18T14:25:23;96090.03;;;9.93;41.97
30819;BME280;17546;42.674;23.284;2022-12-18T14:30:24;96094.50;;;10.00;41.75
30819;BME280;17546;42.674;23.284;2022-12-18T14:33:10;96092.22;;;10.17;41.64
30819;BME280;17546;42.674;23.284;2022-12-18T14:35:52;96097.38;;;9.59;42.48
30819;BME280;17546;42.674;23.284;2022-12-18T14:43:23;96079.59;;;9.97;41.75
30819;BME280;17546;42.674;23.284;2022-12-18T14:45:49;96086.06;;;10.12;41.55
30819;BME280;17546;42.674;23.284;2022-12-18T14:48:20;96086.53;;;10.29;41.30
30819;BME280;17546;42.674;23.284;2022-12-18T14:50:59;96096.56;;;10.45;41.06
30819;BME280;17546;42.674;23.284;2022-12-18T14:53:36;96090.28;;;10.96;40.43
30819;BME280;17546;42.674;23.284;2022-12-18T14:58:37;96092.44;;;11.35;39.76
30819;BME280;17546;42.674;23.284;2022-12-18T15:01:03;96100.06;;;11.58;39.38
30819;BME280;17546;42.674;23.284;2022-12-18T15:03:28;96098.16;;;11.41;39.65